createdAt,value
2018-07-30T00:00:07.543Z,19.73
2018-07-30T00:03:06.007Z,19.40
2018-07-30T00:06:04.044Z,20.20
2018-07-30T00:09:02.157Z,19.80
2018-07-30T00:12:01.323Z,20.33
2018-07-30T00:14:59.871Z,16.60
2018-07-30T00:17:59.516Z,17.17
2018-07-30T00:20:58.211Z,16.93
2018-07-30T00:23:56.557Z,16.37
2018-07-30T00:26:55.972Z,16.57
2018-07-30T00:29:54.177Z,16.97
2018-07-30T00:32:52.337Z,16.37
2018-07-30T00:35:50.531Z,16.13
2018-07-30T00:38:48.495Z,16.40
2018-07-30T00:41:47.882Z,17.00
2018-07-30T00:44:45.953Z,17.80
2018-07-30T00:47:44.304Z,16.20
2018-07-30T00:50:42.629Z,16.40
2018-07-30T00:53:40.940Z,16.27
2018-07-30T00:56:39.312Z,16.30
2018-07-30T00:59:37.368Z,15.30
2018-07-30T01:02:35.638Z,14.93
2018-07-30T01:05:33.884Z,16.53
2018-07-30T01:08:32.472Z,16.57
2018-07-30T01:11:30.750Z,15.80
2018-07-30T01:14:29.124Z,17.40
2018-07-30T01:17:27.448Z,18.27
2018-07-30T01:20:26.388Z,18.03
2018-07-30T01:23:24.716Z,18.33
2018-07-30T01:26:42.030Z,17.67
2018-07-30T01:29:39.736Z,19.07
2018-07-30T01:32:38.043Z,20.20
2018-07-30T01:35:37.454Z,24.87
2018-07-30T01:38:35.708Z,22.50
2018-07-30T01:41:34.557Z,19.53
2018-07-30T01:44:33.040Z,20.27
2018-07-30T01:47:32.514Z,19.43
2018-07-30T01:50:33.186Z,19.23
2018-07-30T01:53:31.568Z,18.93
2018-07-30T01:56:30.193Z,20.10
2018-07-30T01:59:28.494Z,20.17
2018-07-30T02:02:27.034Z,18.90
2018-07-30T02:05:25.814Z,23.77
2018-07-30T02:08:24.093Z,23.17
2018-07-30T02:11:22.231Z,21.20
2018-07-30T02:14:20.707Z,21.37
2018-07-30T02:17:18.704Z,21.07
2018-07-30T02:20:17.113Z,20.63
2018-07-30T02:23:16.427Z,20.50
2018-07-30T02:26:14.794Z,21.07
2018-07-30T02:29:13.030Z,22.03
2018-07-30T02:32:11.132Z,20.50
2018-07-30T02:35:09.326Z,21.23
2018-07-30T02:38:07.484Z,19.23
2018-07-30T02:41:05.819Z,18.50
2018-07-30T02:44:04.903Z,19.90
2018-07-30T02:47:03.881Z,19.13
2018-07-30T02:50:03.291Z,19.13
2018-07-30T02:53:01.553Z,21.37
2018-07-30T02:55:59.768Z,22.60
2018-07-30T02:58:58.154Z,23.40
2018-07-30T03:01:55.877Z,23.13
2018-07-30T03:04:54.167Z,20.53
2018-07-30T03:07:52.516Z,22.23
2018-07-30T03:10:50.697Z,20.47
2018-07-30T03:13:52.386Z,21.12
2018-07-30T03:16:50.582Z,21.53
2018-07-30T03:19:49.464Z,18.60
2018-07-30T03:22:47.314Z,19.00
2018-07-30T03:25:45.426Z,18.97
2018-07-30T03:28:43.731Z,19.47
2018-07-30T03:31:41.953Z,21.13
2018-07-30T03:34:40.100Z,20.17
2018-07-30T03:37:38.191Z,20.43
2018-07-30T03:40:37.457Z,19.27
2018-07-30T03:43:35.840Z,20.53
2018-07-30T03:46:34.111Z,22.23
2018-07-30T03:49:32.477Z,21.73
2018-07-30T03:52:30.869Z,19.43
2018-07-30T03:55:30.028Z,20.50
2018-07-30T03:58:29.413Z,21.53
2018-07-30T04:01:27.578Z,22.27
2018-07-30T04:04:26.863Z,23.33
2018-07-30T04:07:25.091Z,22.53
2018-07-30T04:10:23.561Z,23.23
2018-07-30T04:13:21.864Z,22.77
2018-07-30T04:16:20.312Z,24.13
2018-07-30T04:19:18.661Z,22.23
2018-07-30T04:22:17.123Z,25.03
2018-07-30T04:25:15.359Z,24.87
2018-07-30T04:28:13.780Z,24.17
2018-07-30T04:31:12.764Z,22.17
2018-07-30T04:34:12.067Z,22.80
2018-07-30T04:37:10.458Z,22.70
2018-07-30T04:40:08.796Z,22.90
2018-07-30T04:43:06.986Z,23.57
2018-07-30T04:46:05.247Z,23.37
2018-07-30T04:49:03.473Z,22.30
2018-07-30T04:52:01.741Z,22.53
2018-07-30T04:55:01.061Z,23.27
2018-07-30T04:57:59.381Z,22.83
2018-07-30T05:00:58.000Z,23.50
2018-07-30T05:03:56.252Z,23.27
2018-07-30T05:06:54.440Z,23.63
2018-07-30T05:10:02.285Z,21.83
2018-07-30T05:13:01.663Z,23.17
2018-07-30T05:16:00.996Z,23.13
2018-07-30T05:18:58.856Z,22.27
2018-07-30T05:21:58.817Z,21.17
2018-07-30T05:24:58.480Z,19.67
2018-07-30T05:27:57.009Z,19.33
2018-07-30T05:30:55.570Z,19.70
2018-07-30T05:33:53.497Z,18.57
2018-07-30T05:36:52.031Z,19.03
2018-07-30T05:39:50.067Z,18.90
2018-07-30T05:42:48.306Z,17.77
2018-07-30T05:45:46.578Z,17.53
2018-07-30T05:48:45.742Z,18.10
2018-07-30T05:51:43.938Z,18.13
2018-07-30T05:54:42.221Z,16.37
2018-07-30T05:57:40.463Z,16.60
2018-07-30T06:00:38.771Z,16.40
2018-07-30T06:03:37.226Z,14.40
2018-07-30T06:06:35.404Z,14.33
2018-07-30T06:09:33.914Z,12.90
2018-07-30T06:12:32.251Z,13.63
2018-07-30T06:15:30.734Z,12.03
2018-07-30T06:18:29.094Z,11.13
2018-07-30T06:21:27.320Z,11.10
2018-07-30T06:24:26.781Z,10.10
2018-07-30T06:27:26.439Z,10.87
2018-07-30T06:30:25.089Z,9.97
2018-07-30T06:33:23.236Z,11.83
2018-07-30T06:36:21.841Z,10.67
2018-07-30T06:39:21.916Z,9.50
2018-07-30T06:42:20.325Z,8.83
2018-07-30T06:45:20.013Z,12.20
2018-07-30T06:48:17.789Z,9.17
2018-07-30T06:51:17.020Z,8.60
2018-07-30T06:54:15.225Z,8.37
2018-07-30T06:57:14.477Z,8.17
2018-07-30T07:00:14.208Z,8.20
2018-07-30T07:03:12.156Z,8.07
2018-07-30T07:06:10.823Z,8.90
2018-07-30T07:09:08.772Z,9.27
2018-07-30T07:12:07.565Z,9.70
2018-07-30T07:15:05.732Z,9.80
2018-07-30T07:18:04.037Z,9.97
2018-07-30T07:21:02.709Z,10.33
2018-07-30T07:24:00.892Z,9.27
2018-07-30T07:27:00.100Z,9.10
2018-07-30T07:29:58.585Z,9.20
2018-07-30T07:32:58.817Z,8.87
2018-07-30T07:35:57.134Z,8.90
2018-07-30T07:38:57.144Z,9.37
2018-07-30T07:41:56.602Z,9.37
2018-07-30T07:44:54.633Z,12.83
2018-07-30T07:47:54.109Z,9.23
2018-07-30T07:50:53.854Z,8.53
2018-07-30T07:53:52.089Z,8.17
2018-07-30T07:56:52.397Z,8.07
2018-07-30T07:59:50.800Z,8.53
2018-07-30T08:02:48.892Z,8.30
2018-07-30T08:05:46.972Z,8.40
2018-07-30T08:08:45.070Z,8.23
2018-07-30T08:11:43.409Z,8.17
2018-07-30T08:14:41.530Z,8.00
2018-07-30T08:17:40.574Z,7.63
2018-07-30T08:20:38.987Z,7.43
2018-07-30T08:23:38.001Z,7.80
2018-07-30T08:26:37.188Z,7.43
2018-07-30T08:29:35.149Z,8.00
2018-07-30T08:32:33.582Z,7.43
2018-07-30T08:35:31.889Z,7.47
2018-07-30T08:38:30.262Z,7.23
2018-07-30T08:41:28.441Z,6.93
2018-07-30T08:44:26.542Z,6.80
2018-07-30T08:47:25.160Z,5.87
2018-07-30T08:50:23.354Z,6.37
2018-07-30T08:53:22.334Z,6.53
2018-07-30T08:56:20.665Z,6.23
2018-07-30T08:59:18.853Z,6.43
2018-07-30T09:02:17.062Z,6.80
2018-07-30T09:05:16.502Z,7.13
2018-07-30T09:08:15.646Z,6.80
2018-07-30T09:11:15.140Z,6.40
2018-07-30T09:14:13.209Z,6.10
2018-07-30T09:17:11.273Z,5.53
2018-07-30T09:20:10.262Z,6.03
2018-07-30T09:23:08.327Z,5.80
2018-07-30T09:26:06.592Z,5.83
2018-07-30T09:29:04.271Z,6.30
2018-07-30T09:32:03.632Z,6.60
2018-07-30T09:35:01.826Z,5.70
2018-07-30T09:38:00.967Z,5.60
2018-07-30T09:40:59.388Z,5.97
2018-07-30T09:43:57.597Z,6.37
2018-07-30T09:46:55.651Z,5.80
2018-07-30T09:49:55.149Z,5.73
2018-07-30T09:52:54.383Z,5.97
2018-07-30T09:55:52.487Z,5.70
2018-07-30T09:58:50.764Z,5.83
2018-07-30T10:01:48.916Z,5.73
2018-07-30T10:04:51.025Z,5.37
2018-07-30T10:07:49.459Z,6.20
2018-07-30T10:10:47.517Z,5.80
2018-07-30T10:13:45.868Z,5.70
2018-07-30T10:16:44.242Z,5.20
2018-07-30T10:19:42.524Z,5.20
2018-07-30T10:22:40.393Z,5.23
2018-07-30T10:25:38.625Z,5.80
2018-07-30T10:28:39.265Z,5.23
2018-07-30T10:31:37.305Z,5.27
2018-07-30T10:34:36.663Z,4.80
2018-07-30T10:37:34.734Z,5.20
2018-07-30T10:40:32.624Z,5.33
2018-07-30T10:43:31.127Z,5.30
2018-07-30T10:46:29.263Z,5.40
2018-07-30T10:49:27.263Z,5.90
2018-07-30T10:52:26.284Z,6.40
2018-07-30T10:55:24.362Z,7.20
2018-07-30T10:58:22.467Z,5.53
2018-07-30T11:01:21.222Z,5.37
2018-07-30T11:04:19.353Z,4.97
2018-07-30T11:07:18.602Z,5.47
2018-07-30T11:10:16.669Z,5.33
2018-07-30T11:13:15.202Z,5.07
2018-07-30T11:16:13.353Z,5.77
2018-07-30T11:19:12.917Z,6.03
2018-07-30T11:22:11.403Z,5.30
2018-07-30T11:25:09.728Z,4.80
2018-07-30T11:28:08.062Z,5.22
2018-07-30T11:31:06.192Z,4.55
2018-07-30T11:34:04.751Z,4.70
2018-07-30T11:37:03.838Z,4.30
2018-07-30T11:40:01.959Z,4.40
2018-07-30T11:43:00.088Z,4.45
2018-07-30T11:46:04.180Z,4.67
2018-07-30T11:49:02.136Z,4.53
2018-07-30T11:52:00.724Z,4.53
2018-07-30T11:55:00.070Z,4.42
2018-07-30T11:57:58.364Z,4.95
2018-07-30T12:00:56.567Z,5.15
2018-07-30T12:03:54.764Z,4.90
2018-07-30T12:06:53.038Z,4.72
2018-07-30T12:09:51.145Z,5.40
2018-07-30T12:12:50.073Z,6.33
2018-07-30T12:15:48.290Z,5.30
2018-07-30T12:18:46.500Z,4.17
2018-07-30T12:21:44.659Z,4.00
2018-07-30T12:24:42.858Z,4.20
2018-07-30T12:27:40.898Z,4.45
2018-07-30T12:30:40.599Z,3.92
2018-07-30T12:33:38.722Z,3.80
2018-07-30T12:36:37.036Z,4.00
2018-07-30T12:39:36.351Z,3.67
2018-07-30T12:42:34.565Z,3.42
2018-07-30T12:45:39.874Z,3.40
2018-07-30T12:48:37.964Z,4.42
2018-07-30T12:51:36.264Z,4.70
2018-07-30T12:54:35.000Z,4.40
2018-07-30T12:57:33.336Z,3.58
2018-07-30T13:00:32.135Z,4.80
2018-07-30T13:03:31.220Z,4.00
2018-07-30T13:06:29.377Z,3.92
2018-07-30T13:09:29.704Z,3.75
2018-07-30T13:12:27.949Z,3.30
2018-07-30T13:15:25.965Z,3.50
2018-07-30T13:18:24.988Z,3.80
2018-07-30T13:21:24.492Z,3.60
2018-07-30T13:24:22.788Z,3.72
2018-07-30T13:27:20.933Z,3.60
2018-07-30T13:30:20.109Z,3.62
2018-07-30T13:33:18.409Z,3.47
2018-07-30T13:36:16.545Z,3.20
2018-07-30T13:39:14.777Z,3.70
2018-07-30T13:42:12.848Z,3.83
2018-07-30T13:45:10.929Z,3.80
2018-07-30T13:48:09.085Z,3.40
2018-07-30T13:51:07.366Z,3.47
2018-07-30T13:54:05.652Z,3.42
2018-07-30T13:57:04.796Z,3.02
2018-07-30T14:00:03.136Z,3.50
2018-07-30T14:03:02.164Z,3.22
2018-07-30T14:06:00.636Z,3.58
2018-07-30T14:08:58.804Z,3.30
2018-07-30T14:11:56.820Z,3.42
2018-07-30T14:14:55.835Z,3.98
2018-07-30T14:17:53.682Z,4.05
2018-07-30T14:20:52.271Z,3.35
2018-07-30T14:23:50.609Z,4.10
2018-07-30T14:26:48.765Z,4.05
2018-07-30T14:29:46.956Z,3.90
2018-07-30T14:32:46.299Z,3.80
2018-07-30T14:35:44.706Z,3.70
2018-07-30T14:38:43.388Z,3.50
2018-07-30T14:41:41.628Z,3.52
2018-07-30T14:44:48.108Z,3.72
2018-07-30T14:47:46.764Z,4.05
2018-07-30T14:50:44.958Z,3.47
2018-07-30T14:53:43.509Z,3.98
2018-07-30T14:56:41.363Z,4.22
2018-07-30T14:59:39.470Z,4.10
2018-07-30T15:02:37.871Z,4.10
2018-07-30T15:05:36.888Z,3.80
2018-07-30T15:08:35.061Z,3.67
2018-07-30T15:11:33.534Z,3.15
2018-07-30T15:14:31.879Z,3.60
2018-07-30T15:17:32.459Z,3.47
2018-07-30T15:20:30.644Z,3.50
2018-07-30T15:23:29.673Z,3.62
2018-07-30T15:26:27.900Z,3.40
2018-07-30T15:29:27.474Z,3.70
2018-07-30T15:32:25.553Z,3.67
2018-07-30T15:35:23.620Z,3.30
2018-07-30T15:38:22.817Z,3.70
2018-07-30T15:41:21.069Z,3.42
2018-07-30T15:44:19.333Z,3.65
2018-07-30T15:47:21.481Z,3.50
2018-07-30T15:50:21.584Z,3.52
2018-07-30T15:53:20.376Z,3.60
2018-07-30T15:56:18.702Z,3.60
2018-07-30T15:59:17.089Z,3.40
2018-07-30T16:02:15.996Z,3.40
2018-07-30T16:05:14.021Z,3.25
2018-07-30T16:08:12.026Z,3.80
2018-07-30T16:11:11.066Z,3.42
2018-07-30T16:14:09.140Z,3.35
2018-07-30T16:17:07.316Z,3.55
2018-07-30T16:20:05.857Z,3.35
2018-07-30T16:23:03.999Z,3.52
2018-07-30T16:26:01.776Z,3.40
2018-07-30T16:29:00.356Z,3.60
2018-07-30T16:31:58.864Z,3.80
2018-07-30T16:34:57.287Z,3.65
2018-07-30T16:37:55.873Z,3.67
2018-07-30T16:40:54.127Z,3.85
2018-07-30T16:43:52.416Z,3.90
2018-07-30T16:46:50.678Z,4.00
2018-07-30T16:49:48.738Z,4.03
2018-07-30T16:55:49.878Z,3.70
2018-07-30T16:58:47.828Z,3.98
2018-07-30T17:01:45.931Z,4.00
2018-07-30T17:04:43.936Z,4.47
2018-07-30T17:07:41.908Z,4.08
2018-07-30T17:10:39.849Z,4.28
2018-07-30T17:13:39.195Z,4.90
2018-07-30T17:16:37.603Z,4.65
2018-07-30T17:19:35.564Z,4.62
2018-07-30T17:22:33.616Z,5.47
2018-07-30T17:25:31.892Z,4.92
2018-07-30T17:28:30.438Z,5.08
2018-07-30T17:31:28.942Z,4.90
2018-07-30T17:34:27.533Z,5.10
2018-07-30T17:37:25.762Z,5.10
2018-07-30T17:40:24.218Z,5.40
2018-07-30T17:43:22.420Z,5.30
2018-07-30T17:46:21.461Z,6.12
2018-07-30T17:49:19.931Z,5.53
2018-07-30T17:52:18.012Z,5.92
2018-07-30T17:55:17.387Z,5.40
2018-07-30T17:58:15.429Z,5.83
2018-07-30T18:01:13.920Z,5.80
2018-07-30T18:04:11.676Z,6.10
2018-07-30T18:07:10.253Z,6.30
2018-07-30T18:10:08.518Z,6.93
2018-07-30T18:13:06.797Z,6.57
2018-07-30T18:16:05.239Z,7.03
2018-07-30T18:19:03.404Z,7.73
2018-07-30T18:22:02.447Z,7.53
2018-07-30T18:25:01.805Z,8.20
2018-07-30T18:28:00.350Z,14.00
2018-07-30T18:30:59.065Z,10.27
2018-07-30T18:33:58.487Z,11.13
2018-07-30T18:36:57.818Z,13.07
2018-07-30T18:39:55.868Z,16.67
2018-07-30T18:42:54.199Z,10.30
2018-07-30T18:45:52.272Z,12.93
2018-07-30T18:48:50.476Z,11.37
2018-07-30T18:51:49.040Z,12.17
2018-07-30T18:54:48.691Z,15.47
2018-07-30T18:57:46.789Z,16.87
2018-07-30T19:00:45.050Z,13.80
2018-07-30T19:03:43.483Z,12.47
2018-07-30T19:06:41.756Z,12.03
2018-07-30T19:09:39.784Z,11.50
2018-07-30T19:12:38.912Z,10.80
2018-07-30T19:15:38.080Z,9.80
2018-07-30T19:18:36.616Z,9.83
2018-07-30T19:21:35.956Z,9.00
2018-07-30T19:24:34.376Z,8.53
2018-07-30T19:27:33.918Z,8.33
2018-07-30T19:30:32.313Z,8.53
2018-07-30T19:33:31.367Z,8.53
2018-07-30T19:36:31.473Z,8.60
2018-07-30T19:39:31.421Z,8.40
2018-07-30T19:42:29.530Z,9.07
2018-07-30T19:45:28.014Z,9.97
2018-07-30T19:48:27.090Z,9.80
2018-07-30T19:51:27.194Z,9.60
2018-07-30T19:54:25.381Z,9.70
2018-07-30T19:57:23.948Z,9.57
2018-07-30T20:00:23.014Z,10.13
2018-07-30T20:03:21.636Z,9.57
2018-07-30T20:06:20.155Z,10.27
2018-07-30T20:09:20.057Z,10.60
2018-07-30T20:12:18.860Z,11.70
2018-07-30T20:15:18.520Z,10.80
2018-07-30T20:18:17.160Z,10.90
2018-07-30T20:21:15.492Z,11.40
2018-07-30T20:24:14.437Z,11.50
2018-07-30T20:27:12.284Z,11.73
2018-07-30T20:30:10.476Z,12.53
2018-07-30T20:33:09.756Z,13.40
2018-07-30T20:36:07.939Z,15.83
2018-07-30T20:39:07.214Z,15.60
2018-07-30T20:42:05.393Z,13.90
2018-07-30T20:45:04.864Z,14.73
2018-07-30T20:48:03.249Z,14.90
2018-07-30T20:51:01.907Z,13.43
2018-07-30T20:54:00.014Z,12.90
2018-07-30T20:56:59.440Z,12.77
2018-07-30T20:59:57.442Z,13.30
2018-07-30T21:02:57.300Z,12.33
2018-07-30T21:05:55.723Z,12.27
2018-07-30T21:08:53.757Z,13.13
2018-07-30T21:11:52.393Z,11.88
2018-07-30T21:14:50.882Z,12.23
2018-07-30T21:17:49.236Z,12.63
2018-07-30T21:20:47.012Z,11.80
2018-07-30T21:23:45.554Z,12.40
2018-07-30T21:26:43.737Z,12.47
2018-07-30T21:29:41.702Z,12.43
2018-07-30T21:32:39.857Z,13.27
2018-07-30T21:35:38.015Z,12.87
2018-07-30T21:38:36.285Z,13.60
2018-07-30T21:41:34.531Z,13.20
2018-07-30T21:44:32.358Z,14.00
2018-07-30T21:47:30.762Z,13.67
2018-07-30T21:50:28.595Z,13.67
2018-07-30T21:53:27.384Z,14.03
2018-07-30T21:56:25.679Z,13.77
2018-07-30T21:59:24.070Z,13.90
2018-07-30T22:02:22.412Z,14.13
2018-07-30T22:05:24.607Z,14.27
2018-07-30T22:08:23.438Z,14.07
2018-07-30T22:11:22.128Z,13.53
2018-07-30T22:14:20.390Z,14.50
2018-07-30T22:17:18.380Z,14.17
2018-07-30T22:20:17.000Z,14.83
2018-07-30T22:23:15.196Z,15.33
2018-07-30T22:26:18.558Z,15.47
2018-07-30T22:29:16.433Z,16.43
2018-07-30T22:32:14.668Z,16.40
2018-07-30T22:35:14.399Z,16.97
2018-07-30T22:38:12.801Z,16.90
2018-07-30T22:41:11.013Z,16.27
2018-07-30T22:44:09.263Z,16.93
2018-07-30T22:47:07.709Z,17.10
2018-07-30T22:50:05.788Z,15.93
2018-07-30T22:53:04.376Z,17.17
2018-07-30T22:56:02.692Z,16.93
2018-07-30T22:59:01.123Z,16.37
2018-07-30T23:01:59.985Z,17.57
2018-07-30T23:04:58.107Z,17.90
2018-07-30T23:07:56.000Z,18.60
2018-07-30T23:10:55.100Z,16.67
2018-07-30T23:13:54.479Z,16.83
2018-07-30T23:16:52.889Z,16.50
2018-07-30T23:19:51.106Z,17.23
2018-07-30T23:22:49.695Z,18.57
2018-07-30T23:25:48.540Z,17.33
2018-07-30T23:28:46.545Z,17.67
2018-07-30T23:31:44.267Z,17.40
2018-07-30T23:34:43.001Z,18.27
2018-07-30T23:37:41.304Z,16.73
2018-07-30T23:40:39.876Z,17.30
2018-07-30T23:43:38.661Z,18.23
2018-07-30T23:46:37.042Z,18.00
2018-07-30T23:49:35.783Z,18.80
2018-07-30T23:52:34.189Z,18.53
2018-07-30T23:55:33.589Z,17.73
2018-07-30T23:58:31.552Z,17.97
